createdAt,value
2017-11-30T00:02:23.760Z,10.65
2017-11-30T00:04:50.413Z,11.98
2017-11-30T00:07:16.661Z,11.55
2017-11-30T00:09:43.605Z,12.15
2017-11-30T00:12:11.562Z,12.98
2017-11-30T00:14:37.784Z,13.38
2017-11-30T00:17:04.006Z,12.75
2017-11-30T00:19:30.757Z,10.18
2017-11-30T00:21:57.525Z,12.20
2017-11-30T00:24:24.696Z,10.32
2017-11-30T00:26:52.733Z,10.48
2017-11-30T00:29:20.200Z,11.07
2017-11-30T00:31:46.392Z,11.18
2017-11-30T00:34:13.564Z,10.75
2017-11-30T00:36:41.078Z,11.10
2017-11-30T00:39:07.844Z,11.85
2017-11-30T00:41:35.176Z,11.23
2017-11-30T00:44:14.654Z,10.52
2017-11-30T00:46:42.844Z,12.55
2017-11-30T00:49:09.589Z,12.68
2017-11-30T00:51:36.403Z,9.32
2017-11-30T00:54:03.894Z,9.48
2017-11-30T00:56:30.067Z,8.55
2017-11-30T00:58:57.083Z,11.90
2017-11-30T01:01:23.272Z,10.20
2017-11-30T01:03:50.928Z,9.68
2017-11-30T01:06:18.580Z,9.75
2017-11-30T01:08:45.521Z,8.20
2017-11-30T01:11:12.328Z,10.50
2017-11-30T01:13:46.972Z,9.48
2017-11-30T01:16:13.516Z,9.73
2017-11-30T01:18:40.762Z,9.15
2017-11-30T01:21:19.379Z,9.45
2017-11-30T01:23:46.123Z,9.18
2017-11-30T01:26:13.241Z,8.73
2017-11-30T01:28:40.257Z,9.18
2017-11-30T01:31:07.130Z,12.60
2017-11-30T01:33:33.341Z,10.73
2017-11-30T01:36:00.233Z,9.43
2017-11-30T01:38:26.643Z,11.45
2017-11-30T01:40:54.136Z,9.77
2017-11-30T01:43:21.759Z,10.85
2017-11-30T01:45:48.501Z,8.52
2017-11-30T01:48:15.267Z,10.30
2017-11-30T01:50:41.460Z,10.18
2017-11-30T01:53:08.202Z,10.00
2017-11-30T01:55:34.897Z,9.80
2017-11-30T01:58:02.785Z,10.48
2017-11-30T02:00:29.318Z,10.20
2017-11-30T02:02:56.791Z,10.93
2017-11-30T02:05:24.364Z,10.52
2017-11-30T02:07:50.815Z,8.95
2017-11-30T02:10:17.570Z,10.65
2017-11-30T02:12:44.501Z,8.43
2017-11-30T02:15:11.229Z,10.23
2017-11-30T02:17:38.020Z,9.90
2017-11-30T02:20:04.649Z,8.45
2017-11-30T02:22:32.279Z,8.68
2017-11-30T02:24:58.767Z,7.30
2017-11-30T02:27:25.748Z,7.05
2017-11-30T02:29:53.308Z,6.97
2017-11-30T02:32:19.792Z,9.45
2017-11-30T02:34:47.442Z,9.52
2017-11-30T02:37:14.258Z,8.65
2017-11-30T02:39:40.999Z,9.65
2017-11-30T02:42:07.789Z,9.10
2017-11-30T02:44:34.560Z,6.93
2017-11-30T02:47:01.356Z,10.20
2017-11-30T02:49:27.582Z,10.20
2017-11-30T02:51:53.836Z,10.00
2017-11-30T02:54:20.265Z,8.63
2017-11-30T02:56:47.291Z,10.02
2017-11-30T02:59:14.619Z,10.23
2017-11-30T03:01:42.326Z,10.80
2017-11-30T03:04:08.556Z,9.75
2017-11-30T03:06:35.364Z,10.63
2017-11-30T03:09:02.816Z,10.27
2017-11-30T03:11:30.319Z,9.40
2017-11-30T03:13:57.020Z,9.38
2017-11-30T03:16:23.931Z,10.93
2017-11-30T03:18:50.423Z,11.10
2017-11-30T03:21:18.090Z,9.90
2017-11-30T03:23:44.846Z,12.98
2017-11-30T03:26:11.273Z,12.20
2017-11-30T03:28:37.496Z,14.77
2017-11-30T03:31:04.031Z,13.15
2017-11-30T03:33:30.951Z,12.93
2017-11-30T03:35:58.943Z,13.68
2017-11-30T03:38:25.400Z,12.95
2017-11-30T03:40:52.221Z,12.57
2017-11-30T03:43:18.410Z,11.15
2017-11-30T03:45:45.370Z,12.82
2017-11-30T03:48:11.598Z,13.50
2017-11-30T03:50:38.250Z,15.95
2017-11-30T03:53:07.284Z,12.37
2017-11-30T03:55:33.503Z,11.25
2017-11-30T03:58:00.306Z,13.57
2017-11-30T04:00:27.140Z,14.30
2017-11-30T04:05:35.342Z,13.52
2017-11-30T04:08:02.399Z,15.15
2017-11-30T04:10:30.280Z,14.38
2017-11-30T04:12:57.020Z,12.32
2017-11-30T04:15:23.460Z,14.70
2017-11-30T04:17:50.328Z,14.23
2017-11-30T04:20:17.233Z,14.25
2017-11-30T04:22:44.270Z,14.60
2017-11-30T04:25:10.563Z,13.45
2017-11-30T04:27:38.739Z,13.30
2017-11-30T04:30:05.714Z,11.38
2017-11-30T04:32:33.454Z,12.90
2017-11-30T04:35:00.196Z,13.45
2017-11-30T04:37:27.352Z,13.18
2017-11-30T04:39:55.305Z,12.20
2017-11-30T04:42:21.755Z,13.73
2017-11-30T04:44:49.936Z,13.77
2017-11-30T04:47:16.897Z,13.77
2017-11-30T04:49:44.715Z,11.40
2017-11-30T04:52:12.341Z,13.23
2017-11-30T04:54:39.587Z,13.48
2017-11-30T04:57:06.328Z,13.57
2017-11-30T04:59:33.765Z,15.43
2017-11-30T05:02:00.985Z,13.13
2017-11-30T05:04:27.726Z,15.20
2017-11-30T05:06:54.463Z,15.70
2017-11-30T05:09:21.465Z,17.52
2017-11-30T05:11:47.785Z,14.30
2017-11-30T05:27:15.297Z,16.15
2017-11-30T05:29:42.821Z,16.80
2017-11-30T05:32:09.492Z,16.48
2017-11-30T05:34:37.074Z,15.55
2017-11-30T05:37:03.732Z,14.85
2017-11-30T05:39:30.414Z,17.27
2017-11-30T05:41:57.149Z,14.18
2017-11-30T05:44:23.877Z,15.90
2017-11-30T05:46:50.730Z,13.27
2017-11-30T05:49:17.912Z,16.75
2017-11-30T05:51:44.997Z,13.88
2017-11-30T05:54:11.517Z,16.00
2017-11-30T05:56:38.285Z,15.07
2017-11-30T05:59:05.044Z,16.50
2017-11-30T06:01:31.787Z,14.50
2017-11-30T06:03:59.002Z,15.85
2017-11-30T06:06:25.229Z,13.62
2017-11-30T06:08:51.430Z,15.27
2017-11-30T06:11:17.650Z,14.93
2017-11-30T06:13:44.604Z,15.07
2017-11-30T06:16:10.831Z,12.93
2017-11-30T06:18:37.577Z,12.13
2017-11-30T06:21:05.297Z,12.80
2017-11-30T06:23:31.579Z,12.50
2017-11-30T06:25:58.454Z,13.48
2017-11-30T06:28:25.251Z,13.80
2017-11-30T06:30:52.469Z,14.13
2017-11-30T06:33:19.468Z,15.65
2017-11-30T06:35:45.798Z,14.77
2017-11-30T06:38:12.665Z,15.10
2017-11-30T06:40:38.952Z,16.40
2017-11-30T06:43:07.301Z,15.82
2017-11-30T06:45:34.666Z,17.52
2017-11-30T06:48:01.936Z,17.00
2017-11-30T06:50:28.206Z,17.52
2017-11-30T06:52:54.435Z,17.70
2017-11-30T06:55:21.684Z,15.18
2017-11-30T06:57:49.451Z,16.12
2017-11-30T07:00:16.694Z,14.60
2017-11-30T07:02:43.436Z,17.65
2017-11-30T07:05:10.656Z,16.48
2017-11-30T07:07:38.693Z,16.37
2017-11-30T07:10:06.184Z,18.12
2017-11-30T07:12:33.009Z,17.60
2017-11-30T07:14:59.770Z,15.98
2017-11-30T07:17:25.989Z,18.40
2017-11-30T07:19:52.434Z,21.00
2017-11-30T07:22:19.295Z,18.35
2017-11-30T07:24:46.406Z,19.10
2017-11-30T07:27:14.454Z,18.87
2017-11-30T07:29:41.497Z,18.58
2017-11-30T07:32:09.561Z,19.45
2017-11-30T07:34:36.308Z,18.15
2017-11-30T07:37:04.213Z,17.48
2017-11-30T07:39:31.178Z,18.00
2017-11-30T07:41:59.179Z,17.40
2017-11-30T07:44:25.491Z,16.52
2017-11-30T07:46:52.684Z,16.10
2017-11-30T07:49:20.306Z,17.90
2017-11-30T07:51:46.514Z,19.05
2017-11-30T07:54:13.741Z,18.52
2017-11-30T07:56:41.288Z,18.33
2017-11-30T07:59:07.488Z,17.70
2017-11-30T08:01:34.399Z,18.25
2017-11-30T08:04:00.851Z,16.80
2017-11-30T08:06:28.739Z,19.90
2017-11-30T08:08:56.345Z,19.05
2017-11-30T08:11:22.525Z,17.90
2017-11-30T08:13:50.423Z,19.10
2017-11-30T08:16:17.261Z,18.80
2017-11-30T08:18:43.863Z,21.65
2017-11-30T08:21:11.431Z,18.45
2017-11-30T08:23:39.014Z,19.20
2017-11-30T08:26:05.243Z,17.73
2017-11-30T08:28:31.484Z,17.73
2017-11-30T08:30:57.740Z,18.23
2017-11-30T08:33:23.971Z,20.60
2017-11-30T08:35:50.800Z,17.65
2017-11-30T08:38:17.803Z,19.27
2017-11-30T08:40:44.069Z,17.95
2017-11-30T08:43:10.511Z,16.15
2017-11-30T08:45:37.519Z,18.65
2017-11-30T08:48:03.744Z,18.90
2017-11-30T08:50:31.205Z,19.33
2017-11-30T08:52:57.997Z,20.48
2017-11-30T08:55:25.073Z,17.62
2017-11-30T08:57:52.583Z,18.37
2017-11-30T09:00:19.292Z,19.98
2017-11-30T09:02:46.853Z,16.98
2017-11-30T09:05:14.552Z,15.70
2017-11-30T09:07:41.476Z,16.00
2017-11-30T09:10:07.718Z,18.83
2017-11-30T09:12:33.978Z,18.02
2017-11-30T09:15:00.181Z,16.55
2017-11-30T09:17:26.375Z,17.70
2017-11-30T09:19:52.637Z,18.42
2017-11-30T09:22:19.524Z,18.90
2017-11-30T09:24:47.239Z,18.60
2017-11-30T09:27:13.420Z,20.10
2017-11-30T09:29:39.644Z,18.10
2017-11-30T09:32:07.133Z,18.12
2017-11-30T09:34:35.007Z,18.75
2017-11-30T09:37:01.524Z,19.40
2017-11-30T09:39:29.292Z,17.08
2017-11-30T09:41:55.506Z,18.75
2017-11-30T09:44:22.110Z,19.58
2017-11-30T09:46:49.113Z,17.75
2017-11-30T09:49:15.860Z,18.20
2017-11-30T10:01:27.411Z,17.75
2017-11-30T10:03:54.210Z,17.62
2017-11-30T10:06:21.338Z,18.83
2017-11-30T10:08:49.494Z,18.37
2017-11-30T10:11:16.239Z,18.40
2017-11-30T10:13:43.004Z,18.25
2017-11-30T10:16:09.965Z,19.80
2017-11-30T10:18:37.366Z,19.08
2017-11-30T10:21:05.702Z,16.00
2017-11-30T10:33:17.256Z,14.48
2017-11-30T10:35:43.460Z,14.63
2017-11-30T10:38:10.753Z,16.10
2017-11-30T10:40:37.912Z,15.43
2017-11-30T10:43:04.647Z,14.87
2017-11-30T10:45:32.147Z,15.20
2017-11-30T10:48:00.089Z,14.48
2017-11-30T10:50:26.880Z,14.98
2017-11-30T10:52:53.925Z,15.95
2017-11-30T10:55:20.879Z,15.80
2017-11-30T10:57:47.939Z,15.90
2017-11-30T11:00:14.291Z,15.85
2017-11-30T11:02:40.988Z,14.90
2017-11-30T11:05:08.293Z,14.52
2017-11-30T11:07:35.287Z,14.98
2017-11-30T11:19:48.035Z,11.70
2017-11-30T11:22:15.551Z,12.07
2017-11-30T11:24:42.037Z,13.40
2017-11-30T11:27:09.290Z,14.70
2017-11-30T11:29:36.573Z,13.93
2017-11-30T11:32:03.539Z,13.23
2017-11-30T11:34:31.083Z,13.00
2017-11-30T11:36:57.318Z,13.00
2017-11-30T11:39:23.519Z,13.18
2017-11-30T11:41:50.410Z,13.75
2017-11-30T11:44:16.639Z,14.13
2017-11-30T11:46:43.844Z,13.75
2017-11-30T11:49:11.561Z,13.85
2017-11-30T11:51:38.304Z,16.35
2017-11-30T11:54:05.046Z,16.42
2017-11-30T11:56:32.614Z,15.95
2017-11-30T11:59:00.368Z,16.15
2017-11-30T12:01:27.336Z,15.57
2017-11-30T12:03:55.179Z,17.05
2017-11-30T12:06:21.373Z,14.57
2017-11-30T12:08:48.172Z,14.23
2017-11-30T12:11:15.113Z,16.92
2017-11-30T12:13:42.646Z,15.82
2017-11-30T12:16:09.624Z,16.23
2017-11-30T12:18:36.441Z,16.25
2017-11-30T12:21:03.332Z,17.30
2017-11-30T12:23:29.732Z,15.60
2017-11-30T12:25:56.742Z,15.20
2017-11-30T12:28:23.134Z,18.98
2017-11-30T12:30:49.796Z,16.75
2017-11-30T12:33:16.995Z,17.77
2017-11-30T12:35:44.235Z,18.42
2017-11-30T12:38:11.536Z,17.40
2017-11-30T12:40:39.168Z,16.10
2017-11-30T12:43:05.937Z,14.77
2017-11-30T12:45:32.678Z,16.30
2017-11-30T12:48:00.470Z,15.05
2017-11-30T12:50:26.673Z,18.12
2017-11-30T12:52:53.682Z,17.15
2017-11-30T12:55:20.812Z,17.98
2017-11-30T12:57:47.759Z,16.60
2017-11-30T13:00:15.028Z,18.87
2017-11-30T13:02:42.545Z,16.62
2017-11-30T13:05:09.360Z,16.05
2017-11-30T13:07:35.683Z,18.48
2017-11-30T13:10:02.266Z,17.92
2017-11-30T13:12:29.918Z,16.10
2017-11-30T13:14:57.929Z,17.40
2017-11-30T13:17:24.177Z,20.55
2017-11-30T13:19:51.866Z,18.52
2017-11-30T13:22:18.210Z,18.35
2017-11-30T13:24:44.499Z,16.05
2017-11-30T13:27:12.369Z,15.77
2017-11-30T13:29:39.094Z,18.80
2017-11-30T13:32:05.354Z,16.87
2017-11-30T13:34:31.561Z,17.55
2017-11-30T13:36:58.433Z,19.70
2017-11-30T13:39:25.173Z,16.65
2017-11-30T13:41:51.832Z,18.50
2017-11-30T13:44:19.526Z,20.25
2017-11-30T13:46:46.263Z,18.62
2017-11-30T13:49:13.702Z,17.37
2017-11-30T13:51:41.717Z,18.80
2017-11-30T13:54:07.959Z,17.77
2017-11-30T13:56:34.559Z,16.95
2017-11-30T13:59:00.808Z,14.65
2017-11-30T14:01:27.273Z,16.25
2017-11-30T14:03:55.030Z,16.70
2017-11-30T14:06:22.017Z,17.37
2017-11-30T14:08:48.422Z,12.73
2017-11-30T14:11:15.420Z,12.20
2017-11-30T14:13:41.924Z,11.32
2017-11-30T14:16:09.001Z,10.73
2017-11-30T14:18:35.437Z,10.68
2017-11-30T14:21:02.481Z,11.32
2017-11-30T14:23:28.739Z,10.30
2017-11-30T14:25:55.522Z,10.05
2017-11-30T14:28:23.088Z,10.43
2017-11-30T14:30:50.276Z,12.45
2017-11-30T14:33:17.294Z,10.48
2017-11-30T14:35:43.576Z,11.80
2017-11-30T14:38:10.408Z,10.90
2017-11-30T14:40:36.591Z,11.15
2017-11-30T14:43:04.564Z,11.45
2017-11-30T14:45:31.311Z,8.23
2017-11-30T14:47:58.051Z,6.20
2017-11-30T14:50:25.639Z,9.45
2017-11-30T14:52:52.000Z,8.45
2017-11-30T14:55:18.982Z,10.25
2017-11-30T14:57:45.327Z,8.38
2017-11-30T15:00:13.218Z,7.40
2017-11-30T15:02:40.899Z,7.50
2017-11-30T15:05:07.229Z,7.80
2017-11-30T15:07:33.468Z,8.65
2017-11-30T15:10:00.518Z,7.57
2017-11-30T15:12:27.991Z,8.02
2017-11-30T15:14:55.063Z,7.07
2017-11-30T15:17:21.470Z,7.05
2017-11-30T15:19:48.296Z,7.12
2017-11-30T15:22:15.861Z,5.85
2017-11-30T15:24:42.818Z,7.85
2017-11-30T15:27:09.899Z,6.10
2017-11-30T15:29:37.558Z,7.20
2017-11-30T15:32:04.560Z,8.18
2017-11-30T15:34:31.573Z,6.62
2017-11-30T15:36:57.811Z,6.85
2017-11-30T15:39:24.014Z,7.53
2017-11-30T15:41:51.902Z,6.93
2017-11-30T15:44:18.689Z,8.50
2017-11-30T15:46:44.976Z,6.65
2017-11-30T15:49:12.198Z,7.87
2017-11-30T15:51:38.400Z,6.40
2017-11-30T15:54:05.256Z,7.53
2017-11-30T15:56:31.538Z,7.95
2017-11-30T16:08:44.254Z,10.60
2017-11-30T16:11:10.823Z,10.55
2017-11-30T16:13:38.165Z,11.65
2017-11-30T16:16:04.522Z,16.65
2017-11-30T16:18:30.734Z,11.65
2017-11-30T16:20:57.016Z,19.50
2017-11-30T16:23:23.298Z,14.27
2017-11-30T16:25:49.514Z,10.43
2017-11-30T16:28:16.351Z,11.65
2017-11-30T16:30:44.459Z,9.95
2017-11-30T16:33:11.048Z,10.10
2017-11-30T16:35:38.084Z,12.15
2017-11-30T16:38:05.252Z,9.05
2017-11-30T16:40:33.102Z,12.10
2017-11-30T16:42:59.395Z,11.55
2017-11-30T16:45:26.369Z,11.85
2017-11-30T16:47:52.718Z,12.43
2017-11-30T16:50:19.195Z,10.88
2017-11-30T16:52:46.081Z,9.75
2017-11-30T16:55:12.293Z,10.85
2017-11-30T16:57:39.120Z,12.18
2017-11-30T17:00:06.157Z,11.93
2017-11-30T17:02:32.706Z,12.10
2017-11-30T17:05:00.416Z,13.82
2017-11-30T17:07:27.614Z,13.07
2017-11-30T17:09:55.480Z,13.50
2017-11-30T17:12:22.394Z,13.82
2017-11-30T17:14:49.991Z,13.00
2017-11-30T17:17:17.584Z,14.20
2017-11-30T17:19:45.073Z,13.27
2017-11-30T17:22:11.888Z,16.12
2017-11-30T17:24:38.656Z,12.43
2017-11-30T17:27:04.942Z,12.15
2017-11-30T17:29:31.741Z,10.75
2017-11-30T17:31:58.428Z,11.35
2017-11-30T17:34:24.670Z,10.95
2017-11-30T17:36:51.214Z,10.88
2017-11-30T17:39:18.786Z,12.85
2017-11-30T17:41:45.898Z,10.30
2017-11-30T17:44:13.583Z,13.10
2017-11-30T17:46:41.195Z,12.88
2017-11-30T17:49:08.196Z,15.23
2017-11-30T17:51:35.398Z,14.75
2017-11-30T17:54:01.618Z,14.60
2017-11-30T17:56:28.548Z,15.95
2017-11-30T17:58:56.168Z,13.27
2017-11-30T18:01:22.576Z,14.00
2017-11-30T18:03:49.441Z,12.40
2017-11-30T18:06:15.854Z,14.15
2017-11-30T18:08:42.074Z,16.23
2017-11-30T18:11:08.421Z,18.45
2017-11-30T18:13:35.195Z,14.63
2017-11-30T18:16:02.192Z,14.87
2017-11-30T18:18:28.413Z,17.85
2017-11-30T18:20:55.081Z,15.20
2017-11-30T18:23:22.359Z,12.52
2017-11-30T18:25:50.456Z,14.52
2017-11-30T18:28:18.401Z,22.17
2017-11-30T18:30:44.996Z,19.85
2017-11-30T18:33:11.218Z,20.02
2017-11-30T18:35:37.450Z,20.48
2017-11-30T18:38:04.384Z,22.30
2017-11-30T18:40:31.459Z,20.80
2017-11-30T18:42:58.542Z,20.92
2017-11-30T18:45:25.231Z,21.75
2017-11-30T18:47:51.494Z,20.67
2017-11-30T18:50:17.744Z,18.05
2017-11-30T18:52:46.286Z,15.48
2017-11-30T18:55:12.598Z,18.95
2017-11-30T18:57:39.086Z,19.15
2017-11-30T19:00:07.776Z,15.93
2017-11-30T19:02:34.352Z,19.30
2017-11-30T19:05:02.375Z,19.70
2017-11-30T19:07:29.316Z,16.83
2017-11-30T19:09:56.732Z,14.45
2017-11-30T19:12:23.777Z,16.60
2017-11-30T19:14:50.620Z,16.50
2017-11-30T19:17:17.390Z,21.12
2017-11-30T19:19:44.111Z,23.05
2017-11-30T19:22:11.793Z,23.87
2017-11-30T19:24:39.129Z,28.70
2017-11-30T19:27:06.878Z,26.65
2017-11-30T19:29:33.123Z,24.67
2017-11-30T19:31:59.430Z,27.15
2017-11-30T19:34:26.127Z,27.98
2017-11-30T19:36:53.696Z,30.42
2017-11-30T19:39:21.263Z,30.12
2017-11-30T19:41:47.519Z,30.45
2017-11-30T19:44:14.310Z,27.70
2017-11-30T19:46:40.559Z,23.55
2017-11-30T19:49:08.054Z,23.02
2017-11-30T19:51:34.772Z,23.70
2017-11-30T19:54:01.066Z,23.10
2017-11-30T19:56:27.906Z,22.55
2017-11-30T19:58:54.992Z,22.35
2017-11-30T20:01:21.263Z,25.02
2017-11-30T20:03:47.478Z,24.30
2017-11-30T20:06:13.816Z,24.75
2017-11-30T20:08:40.816Z,24.00
2017-11-30T20:11:07.658Z,21.75
2017-11-30T20:13:33.940Z,23.92
2017-11-30T20:16:01.162Z,20.70
2017-11-30T20:18:27.537Z,22.73
2017-11-30T20:20:54.444Z,21.00
2017-11-30T20:23:20.848Z,18.65
2017-11-30T20:25:48.511Z,19.40
2017-11-30T20:28:15.522Z,18.27
2017-11-30T20:30:42.982Z,20.42
2017-11-30T20:33:10.288Z,23.90
2017-11-30T20:35:36.867Z,19.40
2017-11-30T20:38:03.364Z,15.88
2017-11-30T20:40:30.758Z,20.23
2017-11-30T20:42:57.212Z,22.75
2017-11-30T20:45:24.791Z,22.33
2017-11-30T20:47:51.789Z,18.27
2017-11-30T20:50:18.959Z,19.05
2017-11-30T20:52:46.085Z,18.80
2017-11-30T20:55:12.960Z,18.37
2017-11-30T20:57:40.422Z,19.65
2017-11-30T21:00:07.311Z,14.63
2017-11-30T21:02:34.535Z,18.65
2017-11-30T21:05:03.552Z,19.90
2017-11-30T21:07:32.608Z,20.75
2017-11-30T21:10:00.627Z,18.48
2017-11-30T21:12:28.081Z,19.60
2017-11-30T21:14:55.670Z,20.55
2017-11-30T21:17:23.237Z,21.73
2017-11-30T21:19:50.221Z,19.37
2017-11-30T21:22:17.451Z,22.62
2017-11-30T21:24:43.800Z,20.17
2017-11-30T21:27:10.654Z,22.92
2017-11-30T21:29:36.966Z,20.17
2017-11-30T21:32:03.727Z,25.00
2017-11-30T21:34:30.457Z,22.95
2017-11-30T21:36:58.201Z,27.52
2017-11-30T21:39:25.402Z,21.12
2017-11-30T21:41:51.604Z,22.45
2017-11-30T21:44:17.819Z,17.73
2017-11-30T21:46:45.293Z,19.98
2017-11-30T21:49:12.957Z,18.70
2017-11-30T21:51:39.143Z,21.50
2017-11-30T21:54:06.306Z,16.80
2017-11-30T21:56:32.654Z,15.60
2017-11-30T21:58:59.120Z,17.95
2017-11-30T22:01:26.742Z,17.58
2017-11-30T22:03:53.293Z,16.35
2017-11-30T22:06:21.262Z,18.77
2017-11-30T22:08:47.476Z,16.40
2017-11-30T22:11:14.290Z,18.48
2017-11-30T22:13:40.628Z,18.50
2017-11-30T22:16:07.843Z,18.67
2017-11-30T22:18:34.048Z,17.35
2017-11-30T22:21:01.625Z,16.80
2017-11-30T22:23:29.214Z,16.25
2017-11-30T22:25:56.105Z,15.55
2017-11-30T22:28:23.130Z,15.27
2017-11-30T22:30:50.743Z,16.90
2017-11-30T22:33:18.258Z,14.85
2017-11-30T22:35:44.548Z,18.70
2017-11-30T22:38:12.106Z,19.75
2017-11-30T22:40:38.474Z,18.05
2017-11-30T22:43:05.075Z,19.00
2017-11-30T22:45:33.380Z,20.77
2017-11-30T22:48:00.470Z,18.70
2017-11-30T22:50:27.769Z,16.05
2017-11-30T22:52:54.497Z,16.90
2017-11-30T22:55:20.842Z,16.10
2017-11-30T22:57:47.119Z,16.60
2017-11-30T23:00:13.948Z,15.93
2017-11-30T23:02:40.160Z,15.80
2017-11-30T23:05:06.359Z,14.73
2017-11-30T23:07:32.791Z,15.10
2017-11-30T23:10:00.968Z,18.62
2017-11-30T23:12:27.230Z,16.37
2017-11-30T23:14:53.443Z,14.15
2017-11-30T23:17:20.240Z,15.77
2017-11-30T23:19:47.419Z,12.95
2017-11-30T23:22:13.635Z,13.50
2017-11-30T23:24:40.420Z,13.45
2017-11-30T23:27:07.026Z,15.30
2017-11-30T23:29:34.146Z,15.35
2017-11-30T23:32:01.122Z,16.73
2017-11-30T23:34:27.609Z,18.98
2017-11-30T23:36:54.567Z,17.62
2017-11-30T23:39:21.758Z,23.10
2017-11-30T23:41:49.701Z,24.40
2017-11-30T23:44:16.441Z,19.60
2017-11-30T23:46:43.753Z,18.27
2017-11-30T23:49:11.762Z,16.02
2017-11-30T23:51:38.804Z,17.60
2017-11-30T23:54:05.754Z,17.48
2017-11-30T23:56:33.793Z,19.02
2017-11-30T23:59:01.827Z,15.57
